createdAt,value
2023-01-23T00:00:57.814Z,29.50
2023-01-23T00:04:09.904Z,29.50
2023-01-23T00:07:21.792Z,29.60
2023-01-23T00:11:10.070Z,29.60
2023-01-23T00:14:39.935Z,29.60
2023-01-23T00:18:33.661Z,29.60
2023-01-23T00:29:22.072Z,29.60
2023-01-23T00:36:40.155Z,29.60
2023-01-23T00:40:16.178Z,29.50
2023-01-23T00:43:28.208Z,29.60
2023-01-23T00:46:39.968Z,29.50
2023-01-23T00:49:46.267Z,29.50
2023-01-23T00:52:52.294Z,29.60
2023-01-23T00:56:46.330Z,29.60
2023-01-23T00:59:58.351Z,29.60
2023-01-23T01:03:10.437Z,29.50
2023-01-23T01:06:16.406Z,29.50
2023-01-23T01:09:22.429Z,29.50
2023-01-23T01:12:28.454Z,29.50
2023-01-23T01:15:40.172Z,29.50
2023-01-23T01:18:58.505Z,29.50
2023-01-23T01:22:04.542Z,29.50
2023-01-23T01:25:10.569Z,29.50
2023-01-23T01:28:22.598Z,29.60
2023-01-23T01:31:40.371Z,29.50
2023-01-23T01:34:52.660Z,29.50
2023-01-23T01:37:58.691Z,29.50
2023-01-23T01:41:04.720Z,29.50
2023-01-23T01:44:10.757Z,29.50
2023-01-23T01:47:28.488Z,29.50
2023-01-23T01:50:40.814Z,29.50
2023-01-23T01:53:52.842Z,29.50
2023-01-23T01:57:04.880Z,29.50
2023-01-23T02:00:17.031Z,29.50
2023-01-23T02:03:22.935Z,29.50
2023-01-23T02:06:34.661Z,29.60
2023-01-23T02:09:46.995Z,29.50
2023-01-23T02:12:59.024Z,29.50
2023-01-23T02:16:05.104Z,29.50
2023-01-23T02:19:17.084Z,29.50
2023-01-23T02:22:40.807Z,29.50
2023-01-23T02:25:59.150Z,29.50
2023-01-23T02:29:11.180Z,29.60
2023-01-23T02:32:17.202Z,29.60
2023-01-23T02:35:35.231Z,29.60
2023-01-23T02:38:53.301Z,29.60
2023-01-23T02:41:59.283Z,29.60
2023-01-23T02:45:11.309Z,29.60
2023-01-23T02:48:23.337Z,29.50
2023-01-23T02:51:29.385Z,29.50
2023-01-23T02:54:41.399Z,29.50
2023-01-23T02:57:47.411Z,29.50
2023-01-23T03:00:53.467Z,29.50
2023-01-23T03:04:05.151Z,29.50
2023-01-23T03:07:17.491Z,29.50
2023-01-23T03:10:23.519Z,29.40
2023-01-23T03:13:35.543Z,29.30
2023-01-23T03:16:53.569Z,29.30
2023-01-23T03:19:59.614Z,29.40
2023-01-23T03:23:05.617Z,29.50
2023-01-23T03:26:17.644Z,29.60
2023-01-23T03:29:35.671Z,29.90
2023-01-23T03:32:47.704Z,29.90
2023-01-23T03:36:13.018Z,30.00
2023-01-23T03:39:37.544Z,30.40
2023-01-23T03:43:05.661Z,30.30
2023-01-23T03:46:35.675Z,30.50
2023-01-23T03:50:05.702Z,31.00
2023-01-23T03:53:35.735Z,31.00
2023-01-23T03:56:59.815Z,31.20
2023-01-23T04:00:38.396Z,31.30
2023-01-23T04:08:34.852Z,32.10
2023-01-23T04:12:01.592Z,32.10
2023-01-23T04:15:25.626Z,32.00
2023-01-23T04:18:46.624Z,31.90
2023-01-23T04:22:13.691Z,32.10
2023-01-23T04:25:55.729Z,32.10
2023-01-23T04:29:25.762Z,32.50
2023-01-23T04:32:46.191Z,32.40
2023-01-23T04:40:07.884Z,32.40
2023-01-23T04:50:52.935Z,31.90
2023-01-23T05:15:24.765Z,30.80
2023-01-23T05:18:22.565Z,30.90
2023-01-23T05:21:41.467Z,30.90
2023-01-23T05:54:53.884Z,30.70
2023-01-23T05:57:44.507Z,30.70
2023-01-23T06:00:19.194Z,30.80
2023-01-23T06:02:51.322Z,30.80
2023-01-23T06:05:28.202Z,30.70
2023-01-23T06:08:14.241Z,30.90
2023-01-23T06:11:34.844Z,30.80
2023-01-23T06:44:38.231Z,33.50
2023-01-23T06:47:44.071Z,33.70
2023-01-23T06:50:57.678Z,34.20
2023-01-23T06:53:48.737Z,34.10
2023-01-23T06:56:53.173Z,34.30
2023-01-23T06:59:49.246Z,34.40
2023-01-23T07:05:28.036Z,34.60
2023-01-23T07:08:00.329Z,34.40
2023-01-23T07:10:33.808Z,34.60
2023-01-23T07:13:08.098Z,34.80
2023-01-23T07:16:04.965Z,34.90
2023-01-23T07:19:06.591Z,35.00
2023-01-23T07:22:34.593Z,35.20
2023-01-23T07:25:41.340Z,35.30
2023-01-23T07:31:57.141Z,35.20
2023-01-23T07:35:21.706Z,35.70
2023-01-23T07:38:16.023Z,35.60
2023-01-23T07:41:23.744Z,35.60
2023-01-23T07:44:35.364Z,35.40
2023-01-23T07:47:45.827Z,35.60
2023-01-23T07:50:57.664Z,35.50
2023-01-23T07:54:00.798Z,35.40
2023-01-23T07:56:56.136Z,35.60
2023-01-23T07:59:56.081Z,35.40
2023-01-23T08:03:11.463Z,35.90
2023-01-23T08:06:18.098Z,35.70
2023-01-23T08:09:10.325Z,35.50
2023-01-23T08:12:01.134Z,35.50
2023-01-23T08:21:38.200Z,35.70
2023-01-23T08:28:06.994Z,35.50
2023-01-23T08:31:06.657Z,35.70
2023-01-23T08:34:04.619Z,35.70
2023-01-23T08:37:24.671Z,35.70
2023-01-23T08:43:50.662Z,35.90
2023-01-23T08:46:39.873Z,35.80
2023-01-23T08:49:42.871Z,35.60
2023-01-23T08:52:38.802Z,35.80
2023-01-23T09:03:25.789Z,36.00
2023-01-23T09:46:59.620Z,36.00
2023-01-23T09:58:41.127Z,35.90
2023-01-23T10:14:51.537Z,36.10
2023-01-23T10:17:47.824Z,36.00
2023-01-23T10:21:36.387Z,35.90
2023-01-23T10:28:22.467Z,35.90
2023-01-23T10:35:23.279Z,36.00
2023-01-23T10:38:29.142Z,36.10
2023-01-23T10:54:29.688Z,35.90
2023-01-23T10:58:03.082Z,35.80
2023-01-23T11:55:38.934Z,35.70
2023-01-23T11:59:40.057Z,35.80
2023-01-23T16:20:41.281Z,35.70
2023-01-23T17:28:32.943Z,36.30
2023-01-23T18:19:06.620Z,36.40
2023-01-23T18:22:22.134Z,36.50
2023-01-23T18:25:46.180Z,36.50
2023-01-23T18:29:12.711Z,36.50
2023-01-23T18:32:52.217Z,36.60
2023-01-23T18:36:35.634Z,36.50
2023-01-23T18:40:00.827Z,36.60
2023-01-23T18:43:18.846Z,36.50
2023-01-23T18:46:52.342Z,36.50
2023-01-23T18:50:40.390Z,36.40
2023-01-23T18:58:37.971Z,36.50
2023-01-23T19:06:42.932Z,36.50
2023-01-23T19:21:34.655Z,36.20
2023-01-23T19:25:00.241Z,36.10
2023-01-23T19:28:17.855Z,36.10
2023-01-23T19:32:02.930Z,36.00
2023-01-23T19:35:13.091Z,36.00
2023-01-23T19:38:41.650Z,36.00
2023-01-23T19:42:11.685Z,36.00
2023-01-23T19:45:41.733Z,36.00
2023-01-23T20:21:50.466Z,35.80
2023-01-23T20:28:12.093Z,35.80
2023-01-23T20:32:06.217Z,35.80
2023-01-23T20:35:17.330Z,35.80
2023-01-23T20:42:24.215Z,35.80
2023-01-23T20:45:54.284Z,35.80
2023-01-23T20:49:24.295Z,35.70
2023-01-23T20:52:54.322Z,35.70
2023-01-23T20:56:24.362Z,35.70
2023-01-23T20:59:48.403Z,35.70
2023-01-23T21:02:53.572Z,35.60
2023-01-23T21:05:48.453Z,35.70
2023-01-23T21:08:54.157Z,35.60
2023-01-23T21:12:00.549Z,35.60
2023-01-23T21:15:17.180Z,35.60
2023-01-23T21:18:21.924Z,35.60
2023-01-23T21:21:29.698Z,35.60
2023-01-23T21:24:35.729Z,35.60
2023-01-23T21:27:41.766Z,35.60
2023-01-23T21:31:00.817Z,35.60
2023-01-23T21:34:05.806Z,35.50
2023-01-23T21:37:11.828Z,35.50
2023-01-23T21:40:17.852Z,35.50
2023-01-23T21:43:23.882Z,35.50
2023-01-23T21:46:35.915Z,35.40
2023-01-23T21:49:35.928Z,35.40
2023-01-23T21:52:41.956Z,35.40
2023-01-23T21:55:48.928Z,35.40
2023-01-23T21:58:54.007Z,35.30
2023-01-23T22:02:06.037Z,35.30
2023-01-23T22:05:06.096Z,35.20
2023-01-23T22:08:12.089Z,35.30
2023-01-23T22:11:18.104Z,35.20
2023-01-23T22:14:24.230Z,35.20
2023-01-23T22:17:36.163Z,35.20
2023-01-23T22:20:43.141Z,35.20
2023-01-23T22:23:48.236Z,35.20
2023-01-23T22:26:54.236Z,35.20
2023-01-23T22:30:06.263Z,35.30
2023-01-23T22:33:13.247Z,35.20
2023-01-23T22:36:24.312Z,35.20
2023-01-23T22:39:28.701Z,35.20
2023-01-23T22:42:31.331Z,35.20
2023-01-23T22:45:36.401Z,35.20
2023-01-23T22:48:48.431Z,35.20
2023-01-23T22:51:48.457Z,35.20
2023-01-23T22:55:00.498Z,35.20
2023-01-23T22:58:00.518Z,35.10
2023-01-23T23:01:06.580Z,35.10
2023-01-23T23:04:13.517Z,35.10
2023-01-23T23:07:18.609Z,35.10
2023-01-23T23:10:22.982Z,35.20
2023-01-23T23:13:25.596Z,35.20
2023-01-23T23:16:36.699Z,35.10
2023-01-23T23:20:05.066Z,35.10
2023-01-23T23:23:30.767Z,35.10
2023-01-23T23:26:59.129Z,35.10
2023-01-23T23:30:24.831Z,35.10
2023-01-23T23:33:53.179Z,35.10
2023-01-23T23:37:24.884Z,35.10
2023-01-23T23:40:47.247Z,35.10
2023-01-23T23:44:17.285Z,35.10
2023-01-23T23:47:35.312Z,35.70
2023-01-23T23:50:53.339Z,35.10
2023-01-23T23:54:11.372Z,35.10
2023-01-23T23:57:23.401Z,35.00
